Time;durP1;ratioP1;P1;durP2;ratioP2;P2;SDS_P1;SDS_P2;PMS_P1;PMS_P2;Temp;Humidity;BMP_temperature;BMP_pressure;BME280_temperature;BME280_humidity;BME280_pressure;Samples;Min_cycle;Max_cycle;Signal;HPM_P1;HPM_P2
2022/08/16 00:02:05;;;;;;;0.85;0.60;;;20.20;99.90;;;;;;4996503;28;20455;-79
2022/08/16 00:04:32;;;;;;;1.05;0.75;;;20.20;99.90;;;;;;5027690;28;20042;-79
2022/08/16 00:06:59;;;;;;;1.30;0.80;;;20.20;99.90;;;;;;5011438;28;20050;-79
2022/08/16 00:09:26;;;;;;;1.42;1.02;;;20.20;99.90;;;;;;4997608;28;20038;-79
2022/08/16 00:11:53;;;;;;;1.95;1.10;;;20.20;99.90;;;;;;4985037;28;20434;-79
2022/08/16 00:14:23;;;;;;;1.05;0.70;;;20.20;99.90;;;;;;5046324;28;20038;-78
2022/08/16 00:16:50;;;;;;;1.27;0.60;;;20.20;99.90;;;;;;5031265;28;20069;-80
2022/08/16 00:19:21;;;;;;;1.52;0.80;;;20.10;99.90;;;;;;5011980;28;20065;-79
2022/08/16 00:21:49;;;;;;;1.10;0.73;;;20.10;99.90;;;;;;5018803;28;20419;-78
2022/08/16 00:24:16;;;;;;;0.63;0.52;;;20.10;99.90;;;;;;5045883;28;20038;-79
2022/08/16 00:26:43;;;;;;;0.65;0.60;;;20.10;99.90;;;;;;5014362;28;20100;-78
2022/08/16 00:29:13;;;;;;;1.17;0.65;;;20.10;99.90;;;;;;5030470;28;20042;-79
2022/08/16 00:31:40;;;;;;;0.60;0.57;;;20.10;99.90;;;;;;5030063;28;20087;-80
2022/08/16 00:34:07;;;;;;;1.85;1.05;;;20.10;99.90;;;;;;5013966;28;20391;-79
2022/08/16 00:36:34;;;;;;;1.55;0.88;;;20.10;99.90;;;;;;4997807;28;20048;-80
2022/08/16 00:39:00;;;;;;;0.70;0.50;;;20.10;99.90;;;;;;5028266;28;20041;-80
2022/08/16 00:41:29;;;;;;;1.13;0.60;;;20.00;99.90;;;;;;4978806;28;20125;-79
2022/08/16 00:43:58;;;;;;;0.85;0.57;;;20.00;99.90;;;;;;4996173;28;20042;-79
2022/08/16 00:46:32;;;;;;;1.00;0.70;;;20.10;99.90;;;;;;5013882;28;20772;-79
2022/08/16 00:49:00;;;;;;;0.80;0.60;;;20.00;99.90;;;;;;5026674;28;20047;-79
2022/08/16 00:51:27;;;;;;;0.77;0.68;;;20.00;99.90;;;;;;4994250;28;20125;-79
2022/08/16 00:53:55;;;;;;;1.15;0.90;;;20.00;99.90;;;;;;5011779;28;20038;-80
2022/08/16 00:56:27;;;;;;;0.60;0.43;;;20.00;99.90;;;;;;5013392;28;20061;-80
2022/08/16 00:58:54;;;;;;;0.75;0.50;;;20.00;99.90;;;;;;5030520;28;20042;-79
2022/08/16 01:01:21;;;;;;;1.17;0.80;;;20.00;99.90;;;;;;5013659;28;20087;-79
2022/08/16 01:03:52;;;;;;;1.45;0.80;;;20.00;99.90;;;;;;5030015;28;20503;-78
2022/08/16 01:06:20;;;;;;;1.92;0.90;;;20.00;99.90;;;;;;5029926;28;20092;-78
2022/08/16 01:08:50;;;;;;;0.90;0.65;;;20.00;99.90;;;;;;5030196;28;20041;-79
2022/08/16 01:11:17;;;;;;;2.13;1.00;;;20.00;99.90;;;;;;5045812;28;20038;-79
2022/08/16 01:13:45;;;;;;;0.90;0.65;;;20.00;99.90;;;;;;5012982;28;20050;-79
2022/08/16 01:16:20;;;;;;;1.58;1.08;;;20.00;99.90;;;;;;5013496;28;20456;-79
2022/08/16 01:19:01;;;;;;;1.33;0.80;;;19.90;99.90;;;;;;5030252;28;20042;-79
2022/08/16 01:21:48;;;;;;;0.85;0.50;;;19.90;99.90;;;;;;5029678;28;20052;-80
2022/08/16 01:24:33;;;;;;;2.00;1.20;;;19.90;99.90;;;;;;5032372;28;20054;-80
2022/08/16 01:27:06;;;;;;;1.17;0.63;;;19.90;99.90;;;;;;5030293;28;20100;-79
2022/08/16 01:29:40;;;;;;;1.27;0.90;;;19.80;99.90;;;;;;5039290;28;20368;-80
2022/08/16 01:32:06;;;;;;;1.02;0.70;;;19.80;99.90;;;;;;5010341;28;20476;-79
2022/08/16 01:34:33;;;;;;;1.23;0.80;;;19.80;99.90;;;;;;5016135;28;20117;-79
2022/08/16 01:37:04;;;;;;;1.48;1.10;;;19.80;99.90;;;;;;5027868;28;20511;-81
2022/08/16 01:39:32;;;;;;;1.75;0.95;;;19.80;99.90;;;;;;5010204;28;20042;-79
2022/08/16 01:42:00;;;;;;;0.90;0.77;;;19.80;99.90;;;;;;4993751;28;20042;-80
2022/08/16 01:44:27;;;;;;;0.70;0.52;;;19.80;99.90;;;;;;5015588;28;20045;-80
2022/08/16 01:46:56;;;;;;;1.27;0.80;;;19.80;99.90;;;;;;4997146;28;20038;-79
2022/08/16 01:49:26;;;;;;;2.15;1.15;;;19.70;99.90;;;;;;4997486;28;20042;-79
2022/08/16 01:51:58;;;;;;;1.02;0.70;;;19.70;99.90;;;;;;5009862;28;20041;-79
2022/08/16 01:54:25;;;;;;;1.15;0.75;;;19.80;99.90;;;;;;5010045;28;20042;-79
2022/08/16 01:56:52;;;;;;;2.08;1.02;;;19.70;99.90;;;;;;5009933;28;20050;-79
2022/08/16 01:59:20;;;;;;;2.70;1.08;;;19.70;99.90;;;;;;5025924;28;20042;-79
2022/08/16 02:01:49;;;;;;;1.35;0.80;;;19.70;99.90;;;;;;4993904;28;20500;-80
2022/08/16 02:04:17;;;;;;;1.70;0.95;;;19.70;99.90;;;;;;5009695;28;20038;-78
2022/08/16 02:06:44;;;;;;;0.93;0.80;;;19.70;99.90;;;;;;5011018;28;20492;-80
2022/08/16 02:09:13;;;;;;;1.40;1.00;;;19.70;99.90;;;;;;5013379;28;20150;-79
2022/08/16 02:11:44;;;;;;;1.48;1.00;;;19.60;99.90;;;;;;4997389;28;20095;-80
2022/08/16 02:14:11;;;;;;;1.10;0.82;;;19.60;99.90;;;;;;5043954;28;20116;-79
2022/08/16 02:16:39;;;;;;;1.67;0.90;;;19.60;99.90;;;;;;5025544;28;20138;-79
2022/08/16 02:19:06;;;;;;;1.38;0.90;;;19.60;99.90;;;;;;5009960;28;20074;-80
2022/08/16 02:21:33;;;;;;;1.83;1.10;;;19.60;99.90;;;;;;4977564;28;20077;-80
2022/08/16 02:23:59;;;;;;;1.40;0.88;;;19.50;99.90;;;;;;4993397;28;20042;-79
2022/08/16 02:26:26;;;;;;;1.10;0.75;;;19.50;99.90;;;;;;5009548;28;20038;-79
2022/08/16 02:28:53;;;;;;;1.60;1.00;;;19.50;99.90;;;;;;5010889;28;20046;-79
2022/08/16 02:31:20;;;;;;;1.58;1.05;;;19.50;99.90;;;;;;4993687;28;20041;-79
2022/08/16 02:33:47;;;;;;;1.10;0.88;;;19.40;99.90;;;;;;5009542;28;20491;-78
2022/08/16 02:36:14;;;;;;;1.02;0.73;;;19.50;99.90;;;;;;5025656;28;20046;-79
2022/08/16 02:38:41;;;;;;;1.95;1.30;;;19.40;99.90;;;;;;5028929;28;20041;-80
2022/08/16 02:41:08;;;;;;;2.08;1.30;;;19.40;99.90;;;;;;5029148;28;20046;-80
2022/08/16 02:43:36;;;;;;;1.52;1.00;;;19.40;99.90;;;;;;5028675;28;20038;-79
2022/08/16 02:46:04;;;;;;;1.10;0.90;;;19.40;99.90;;;;;;5013880;28;20065;-78
2022/08/16 02:48:31;;;;;;;2.08;1.15;;;19.40;99.90;;;;;;5048799;28;20117;-80
2022/08/16 02:51:00;;;;;;;1.27;0.93;;;19.30;99.90;;;;;;5016338;28;20179;-79
2022/08/16 02:53:27;;;;;;;1.88;1.20;;;19.30;99.90;;;;;;5032279;28;20065;-79
2022/08/16 02:55:53;;;;;;;1.35;0.88;;;19.30;99.90;;;;;;4999887;28;20054;-79
2022/08/16 02:58:22;;;;;;;1.08;0.77;;;19.30;99.90;;;;;;4981433;28;20038;-79
2022/08/16 03:00:49;;;;;;;1.90;1.30;;;19.20;99.90;;;;;;5012548;28;20054;-79
2022/08/16 03:03:17;;;;;;;1.50;1.00;;;19.20;99.90;;;;;;5029145;28;20101;-79
2022/08/16 03:05:46;;;;;;;1.25;0.95;;;19.20;99.90;;;;;;5043265;28;20046;-80
2022/08/16 03:08:12;;;;;;;1.70;1.05;;;19.10;99.90;;;;;;5032915;28;20092;-80
2022/08/16 03:10:39;;;;;;;1.63;0.90;;;19.20;99.90;;;;;;5032268;28;20041;-80
2022/08/16 03:13:06;;;;;;;1.20;0.77;;;19.10;99.90;;;;;;5032723;28;20445;-79
2022/08/16 03:15:33;;;;;;;0.93;0.80;;;19.10;99.90;;;;;;5048136;28;20060;-79
2022/08/16 03:18:00;;;;;;;1.92;1.20;;;19.10;99.90;;;;;;5016074;28;20038;-79
2022/08/16 03:20:28;;;;;;;1.48;0.90;;;19.10;99.90;;;;;;5048318;28;20133;-79
2022/08/16 03:22:55;;;;;;;1.38;0.98;;;19.10;99.90;;;;;;5031717;28;20573;-79
2022/08/16 03:25:21;;;;;;;1.83;0.95;;;19.10;99.90;;;;;;5030310;28;20038;-79
2022/08/16 03:27:48;;;;;;;1.10;0.90;;;19.10;99.90;;;;;;4985234;28;20069;-80
2022/08/16 03:30:19;;;;;;;2.83;1.30;;;19.10;99.90;;;;;;5016124;28;20045;-79
2022/08/16 03:32:47;;;;;;;1.90;1.00;;;19.10;99.90;;;;;;5048077;28;20045;-79
2022/08/16 03:35:16;;;;;;;1.20;0.82;;;19.00;99.90;;;;;;5032283;28;20045;-80
2022/08/16 03:37:44;;;;;;;1.30;0.93;;;19.00;99.90;;;;;;5031338;28;20048;-80
2022/08/16 03:40:12;;;;;;;1.15;0.90;;;19.00;99.90;;;;;;5015766;28;20466;-79
2022/08/16 03:42:39;;;;;;;3.00;1.35;;;18.90;99.90;;;;;;5047667;28;20042;-79
2022/08/16 03:45:07;;;;;;;2.00;1.13;;;18.90;99.90;;;;;;5031669;28;20438;-80
2022/08/16 03:47:34;;;;;;;2.40;1.30;;;18.90;99.90;;;;;;5031226;28;20141;-80
2022/08/16 03:50:02;;;;;;;1.52;1.15;;;18.90;99.90;;;;;;5031720;28;20065;-79
2022/08/16 03:52:29;;;;;;;1.17;0.80;;;18.90;99.90;;;;;;5031959;28;20038;-79
2022/08/16 03:54:56;;;;;;;1.52;1.10;;;18.90;99.90;;;;;;5031283;28;20495;-79
2022/08/16 03:57:22;;;;;;;1.55;1.08;;;18.90;99.90;;;;;;5030288;28;20069;-79
2022/08/16 03:59:49;;;;;;;1.50;1.00;;;18.90;99.90;;;;;;4998693;28;20041;-80
2022/08/16 04:02:17;;;;;;;1.23;0.90;;;18.90;99.90;;;;;;4998836;28;20121;-79
2022/08/16 04:04:44;;;;;;;1.25;0.88;;;18.90;99.90;;;;;;4998752;28;20041;-79
2022/08/16 04:07:11;;;;;;;1.27;1.02;;;18.90;99.90;;;;;;5046913;28;20034;-79
2022/08/16 04:09:38;;;;;;;1.92;1.02;;;18.90;99.90;;;;;;5030239;28;20037;-79
2022/08/16 04:12:06;;;;;;;1.77;1.17;;;18.80;99.90;;;;;;5030583;28;20038;-80
2022/08/16 04:14:32;;;;;;;2.00;1.27;;;18.90;99.90;;;;;;5030536;28;20065;-79
2022/08/16 04:16:59;;;;;;;1.77;1.17;;;18.90;99.90;;;;;;4998460;28;20080;-80
2022/08/16 04:19:26;;;;;;;1.67;1.10;;;18.80;99.90;;;;;;5027915;28;20073;-79
2022/08/16 04:21:53;;;;;;;2.05;1.25;;;18.90;99.90;;;;;;5010570;28;20493;-80
2022/08/16 04:24:21;;;;;;;1.35;0.88;;;18.90;99.90;;;;;;5012961;28;20039;-80
2022/08/16 04:26:48;;;;;;;1.90;1.25;;;18.90;99.90;;;;;;4994961;28;20038;-79
2022/08/16 04:29:15;;;;;;;1.58;1.05;;;18.90;99.90;;;;;;5011311;28;20561;-79
2022/08/16 04:31:42;;;;;;;1.83;1.13;;;18.90;99.90;;;;;;5010959;28;20073;-80
2022/08/16 04:34:08;;;;;;;1.30;0.90;;;18.90;99.90;;;;;;4995959;28;20081;-80
2022/08/16 04:36:35;;;;;;;1.58;0.88;;;18.90;99.90;;;;;;5010944;28;20129;-80
2022/08/16 04:39:02;;;;;;;1.83;1.10;;;18.80;99.90;;;;;;4994502;28;20100;-80
2022/08/16 04:41:30;;;;;;;1.23;0.85;;;18.90;99.90;;;;;;5011223;28;20050;-79
2022/08/16 04:43:57;;;;;;;1.40;0.90;;;18.90;99.90;;;;;;4996674;28;20160;-79
2022/08/16 04:46:24;;;;;;;1.85;1.15;;;18.80;99.90;;;;;;5030528;28;20048;-80
2022/08/16 04:48:50;;;;;;;2.30;1.27;;;18.90;99.90;;;;;;5036855;28;20443;-80
2022/08/16 04:51:18;;;;;;;2.10;1.05;;;18.80;99.90;;;;;;5023605;28;20034;-80
2022/08/16 04:53:45;;;;;;;1.45;1.00;;;18.80;99.90;;;;;;5030069;28;20416;-79
2022/08/16 04:56:12;;;;;;;0.80;0.70;;;18.80;99.90;;;;;;5013737;28;20065;-80
2022/08/16 04:58:38;;;;;;;1.85;1.00;;;18.80;99.90;;;;;;5030072;28;20076;-80
2022/08/16 05:01:05;;;;;;;1.60;0.95;;;18.80;99.90;;;;;;5013373;28;20859;-79
2022/08/16 05:03:32;;;;;;;1.55;0.93;;;18.80;99.90;;;;;;5012428;28;20045;-79
2022/08/16 05:05:59;;;;;;;2.05;0.82;;;18.80;99.90;;;;;;5038667;28;20037;-80
2022/08/16 05:08:27;;;;;;;1.50;0.93;;;18.80;99.90;;;;;;5012826;28;20034;-79
2022/08/16 05:10:53;;;;;;;1.23;0.98;;;18.80;99.90;;;;;;4997523;28;20128;-81
2022/08/16 05:13:20;;;;;;;1.65;1.02;;;18.80;99.90;;;;;;5030152;28;20241;-81
2022/08/16 05:15:47;;;;;;;1.60;1.13;;;18.80;99.90;;;;;;4997105;28;20037;-81
2022/08/16 05:18:14;;;;;;;1.60;0.80;;;18.80;99.90;;;;;;5010389;28;20045;-81
2022/08/16 05:20:41;;;;;;;1.42;1.00;;;18.80;99.90;;;;;;5014042;28;20049;-81
2022/08/16 05:23:08;;;;;;;1.67;1.20;;;18.80;99.90;;;;;;4997006;28;20053;-81
2022/08/16 05:25:34;;;;;;;1.58;0.90;;;18.90;99.90;;;;;;4997105;28;20088;-82
2022/08/16 05:28:02;;;;;;;1.83;1.20;;;18.90;99.90;;;;;;5028930;28;20054;-82
2022/08/16 05:30:28;;;;;;;1.23;0.95;;;18.90;99.90;;;;;;5013054;28;20042;-81
2022/08/16 05:32:55;;;;;;;1.80;1.27;;;18.90;99.90;;;;;;5029149;28;20069;-81
2022/08/16 05:35:22;;;;;;;1.70;1.05;;;18.90;99.90;;;;;;5013253;28;20049;-80
2022/08/16 05:37:48;;;;;;;1.15;0.77;;;18.90;99.90;;;;;;4996999;28;20069;-82
2022/08/16 05:40:15;;;;;;;1.30;0.80;;;18.90;99.90;;;;;;4996912;28;20040;-80
2022/08/16 05:42:42;;;;;;;1.50;0.98;;;18.90;99.90;;;;;;4997080;28;20038;-82
2022/08/16 05:45:09;;;;;;;1.10;0.90;;;18.90;99.90;;;;;;5029454;28;20038;-81
2022/08/16 05:47:36;;;;;;;1.20;0.90;;;18.90;99.90;;;;;;5013615;28;20029;-81
2022/08/16 05:50:04;;;;;;;1.35;1.00;;;18.90;99.90;;;;;;4997071;28;20434;-81
2022/08/16 05:52:31;;;;;;;2.17;0.90;;;18.80;99.90;;;;;;5013209;28;20093;-80
2022/08/16 05:54:58;;;;;;;0.77;0.68;;;18.80;99.90;;;;;;4986310;28;20096;-79
2022/08/16 05:57:25;;;;;;;1.27;0.88;;;18.80;99.90;;;;;;5009567;28;20108;-82
2022/08/16 05:59:52;;;;;;;1.38;0.90;;;18.90;99.90;;;;;;5025684;28;20100;-80
2022/08/16 06:02:20;;;;;;;1.90;1.17;;;18.90;99.90;;;;;;4977591;28;20046;-81
2022/08/16 06:04:47;;;;;;;1.10;0.90;;;19.00;99.90;;;;;;5015819;28;20061;-82
2022/08/16 06:07:14;;;;;;;2.17;1.25;;;19.00;99.90;;;;;;4993594;28;20077;-81
2022/08/16 06:09:41;;;;;;;1.20;0.82;;;19.00;99.90;;;;;;5009669;28;20042;-81
2022/08/16 06:12:08;;;;;;;1.38;1.02;;;19.10;99.90;;;;;;5029126;28;20049;-81
2022/08/16 06:14:35;;;;;;;1.65;1.20;;;19.20;99.90;;;;;;4997060;28;20050;-82
2022/08/16 06:17:01;;;;;;;1.52;1.00;;;19.20;99.90;;;;;;5012851;28;20049;-80
2022/08/16 06:19:28;;;;;;;1.98;1.10;;;19.20;99.90;;;;;;4991537;28;20050;-82
2022/08/16 06:21:55;;;;;;;2.37;1.57;;;19.30;99.90;;;;;;5011572;28;20038;-81
2022/08/16 06:24:21;;;;;;;1.55;0.98;;;19.30;99.90;;;;;;5029811;28;20259;-82
2022/08/16 06:26:48;;;;;;;1.65;1.13;;;19.40;99.90;;;;;;4981315;28;20058;-80
2022/08/16 06:29:15;;;;;;;1.70;1.00;;;19.40;99.90;;;;;;5025939;28;20069;-80
2022/08/16 06:31:41;;;;;;;1.38;1.00;;;19.30;99.90;;;;;;5013478;28;20038;-81
2022/08/16 06:34:08;;;;;;;2.38;1.58;;;19.30;99.90;;;;;;4980941;28;20042;-80
2022/08/16 06:36:35;;;;;;;1.52;1.17;;;19.30;99.90;;;;;;4997247;28;20042;-82
2022/08/16 06:39:02;;;;;;;1.10;0.73;;;19.30;99.90;;;;;;4996827;28;20042;-80
2022/08/16 06:41:28;;;;;;;1.90;1.23;;;19.30;99.90;;;;;;4981238;28;20053;-80
2022/08/16 06:43:55;;;;;;;1.50;0.93;;;19.30;99.90;;;;;;5029421;28;20034;-80
2022/08/16 06:46:26;;;;;;;1.70;0.95;;;19.30;99.90;;;;;;5000651;28;20368;-81
2022/08/16 06:48:53;;;;;;;1.15;0.88;;;19.40;99.90;;;;;;5048149;28;20088;-80
2022/08/16 06:51:20;;;;;;;1.42;1.02;;;19.50;99.90;;;;;;4996754;28;20035;-81
2022/08/16 06:53:47;;;;;;;2.15;1.42;;;19.60;99.90;;;;;;5008458;28;20407;-81
2022/08/16 06:56:13;;;;;;;3.92;1.20;;;19.70;99.90;;;;;;5028249;28;20587;-80
2022/08/16 06:58:40;;;;;;;2.60;1.40;;;19.80;99.90;;;;;;4996799;28;20050;-80
2022/08/16 07:01:07;;;;;;;1.63;1.20;;;19.80;99.90;;;;;;5031308;28;20049;-80
2022/08/16 07:03:34;;;;;;;1.33;0.98;;;19.90;99.90;;;;;;5015309;28;20453;-80
2022/08/16 07:06:01;;;;;;;1.13;0.80;;;20.00;99.90;;;;;;5011661;28;20101;-78
2022/08/16 07:08:28;;;;;;;1.98;1.13;;;20.10;99.90;;;;;;5015657;28;20161;-81
2022/08/16 07:10:57;;;;;;;1.48;0.95;;;20.10;99.90;;;;;;5032223;28;20041;-80
2022/08/16 07:13:24;;;;;;;1.35;0.75;;;20.20;99.90;;;;;;5038537;28;20034;-81
2022/08/16 07:15:51;;;;;;;1.75;1.00;;;20.20;99.90;;;;;;4999380;28;20131;-80
2022/08/16 07:18:19;;;;;;;1.88;1.23;;;20.30;99.90;;;;;;4999224;28;20077;-80
2022/08/16 07:20:48;;;;;;;2.10;1.30;;;20.40;99.90;;;;;;5029215;28;20514;-82
2022/08/16 07:23:14;;;;;;;1.77;1.10;;;20.50;99.90;;;;;;5009792;28;20038;-82
2022/08/16 07:25:42;;;;;;;1.88;1.10;;;20.60;99.90;;;;;;4995372;28;20394;-81
2022/08/16 07:28:15;;;;;;;1.45;0.82;;;20.70;99.90;;;;;;5022002;28;20049;-80
2022/08/16 07:30:44;;;;;;;1.60;1.10;;;20.80;99.90;;;;;;5019466;28;20435;-80
2022/08/16 07:33:13;;;;;;;1.58;1.17;;;20.90;99.90;;;;;;5025403;28;20041;-81
2022/08/16 07:35:40;;;;;;;1.85;1.30;;;21.00;99.90;;;;;;5016185;28;20053;-81
2022/08/16 07:38:07;;;;;;;2.50;1.55;;;21.10;99.90;;;;;;5027505;28;20121;-80
2022/08/16 07:40:35;;;;;;;2.35;1.27;;;21.30;99.90;;;;;;5011250;28;20121;-81
2022/08/16 07:43:03;;;;;;;1.52;1.00;;;21.30;99.90;;;;;;5028664;28;20039;-82
2022/08/16 07:45:32;;;;;;;1.60;1.10;;;21.40;99.90;;;;;;5023635;28;20030;-82
2022/08/16 07:47:59;;;;;;;1.85;1.08;;;21.60;99.90;;;;;;5028637;28;20042;-82
2022/08/16 07:50:26;;;;;;;2.58;1.38;;;21.70;99.90;;;;;;5007190;28;20069;-82
2022/08/16 07:52:55;;;;;;;2.20;1.38;;;21.80;99.90;;;;;;5014952;28;20392;-80
2022/08/16 07:55:22;;;;;;;2.05;1.30;;;21.90;99.90;;;;;;5014312;28;20081;-81
2022/08/16 07:57:49;;;;;;;2.58;1.35;;;22.00;99.90;;;;;;5027405;28;20543;-81
2022/08/16 08:00:16;;;;;;;1.90;1.25;;;22.10;99.90;;;;;;5008475;28;20046;-80
2022/08/16 08:02:45;;;;;;;2.92;0.98;;;22.20;99.90;;;;;;4997105;28;20042;-80
2022/08/16 08:05:13;;;;;;;2.35;1.48;;;22.30;99.90;;;;;;5027017;28;20098;-80
2022/08/16 08:07:39;;;;;;;2.17;1.13;;;22.40;99.90;;;;;;5028179;28;20037;-80
2022/08/16 08:10:08;;;;;;;2.22;1.38;;;22.50;99.90;;;;;;5014621;28;20042;-81
2022/08/16 08:12:37;;;;;;;2.08;1.33;;;22.50;99.90;;;;;;5011601;28;20057;-80
2022/08/16 08:15:08;;;;;;;2.33;1.40;;;22.60;99.90;;;;;;5014188;28;20495;-80
2022/08/16 08:17:38;;;;;;;1.98;1.33;;;22.70;99.90;;;;;;5023461;28;20049;-80
2022/08/16 08:20:07;;;;;;;2.65;1.30;;;22.90;99.90;;;;;;5010218;28;20045;-83
2022/08/16 08:22:34;;;;;;;2.13;1.20;;;22.90;99.90;;;;;;5030552;28;20454;-81
2022/08/16 08:25:02;;;;;;;1.67;1.23;;;23.10;99.90;;;;;;5027018;28;20070;-84
2022/08/16 08:27:28;;;;;;;1.35;0.85;;;23.20;99.90;;;;;;4999420;28;20046;-80
2022/08/16 08:29:55;;;;;;;1.45;0.85;;;23.30;99.90;;;;;;4992709;28;20034;-81
2022/08/16 08:32:31;;;;;;;2.13;1.27;;;23.40;99.90;;;;;;5009462;28;20042;-83
2022/08/16 08:34:58;;;;;;;1.65;1.05;;;23.50;99.90;;;;;;5048600;28;20133;-83
2022/08/16 08:37:28;;;;;;;1.98;1.27;;;23.50;99.90;;;;;;5014093;28;20049;-83
2022/08/16 08:39:54;;;;;;;1.73;1.10;;;23.60;99.90;;;;;;5014419;28;20473;-83
2022/08/16 08:42:21;;;;;;;2.80;1.70;;;23.80;99.90;;;;;;5014112;28;20042;-83
2022/08/16 08:44:48;;;;;;;1.75;1.13;;;23.80;99.90;;;;;;5029250;28;20791;-82
2022/08/16 08:47:15;;;;;;;1.42;0.98;;;23.90;99.90;;;;;;5013514;28;20046;-82
2022/08/16 08:49:42;;;;;;;2.13;1.20;;;24.00;99.90;;;;;;5027180;28;20044;-83
2022/08/16 08:52:10;;;;;;;1.58;1.05;;;24.00;99.90;;;;;;5042276;28;20062;-83
2022/08/16 08:54:37;;;;;;;3.03;1.30;;;24.10;99.90;;;;;;4987480;28;20044;-83
2022/08/16 08:57:04;;;;;;;1.88;1.10;;;24.10;99.90;;;;;;4997916;28;20100;-83
2022/08/16 08:59:32;;;;;;;1.40;0.90;;;24.20;99.90;;;;;;5026807;28;20035;-83
2022/08/16 09:02:00;;;;;;;3.72;1.35;;;24.30;99.90;;;;;;5002848;28;20042;-82
2022/08/16 09:04:30;;;;;;;1.65;1.15;;;24.40;99.90;;;;;;5012108;28;20045;-83
2022/08/16 09:06:57;;;;;;;1.75;1.13;;;24.50;99.90;;;;;;5010745;28;20034;-83
2022/08/16 09:09:24;;;;;;;1.90;1.10;;;24.60;99.90;;;;;;4984255;28;20049;-82
2022/08/16 09:11:51;;;;;;;1.75;1.00;;;24.70;99.90;;;;;;5012403;28;20041;-83
2022/08/16 09:14:17;;;;;;;1.65;0.93;;;24.70;99.90;;;;;;4995579;28;20049;-84
2022/08/16 09:16:44;;;;;;;1.38;1.00;;;24.90;99.90;;;;;;4997751;28;20180;-83
2022/08/16 09:19:11;;;;;;;1.13;0.90;;;25.00;99.90;;;;;;5013322;28;20056;-82
2022/08/16 09:21:37;;;;;;;1.27;0.98;;;25.10;99.90;;;;;;5012803;28;20127;-82
2022/08/16 09:24:05;;;;;;;2.10;1.10;;;25.20;99.90;;;;;;5010140;28;20039;-82
2022/08/16 09:26:31;;;;;;;1.15;0.77;;;25.20;99.90;;;;;;5003608;28;20044;-83
2022/08/16 09:28:58;;;;;;;1.42;1.00;;;25.30;99.90;;;;;;5037246;28;20046;-81
2022/08/16 09:31:25;;;;;;;1.38;0.90;;;25.30;99.90;;;;;;5011914;28;20562;-84
2022/08/16 09:33:51;;;;;;;1.80;1.10;;;25.50;99.90;;;;;;5018315;28;20502;-83
2022/08/16 09:36:19;;;;;;;1.13;0.80;;;25.50;99.90;;;;;;4991876;28;20133;-83
2022/08/16 09:38:45;;;;;;;1.20;0.75;;;25.60;99.90;;;;;;5027778;28;20038;-83
2022/08/16 09:41:12;;;;;;;1.83;1.02;;;25.70;99.90;;;;;;5027163;28;20038;-82
2022/08/16 09:43:39;;;;;;;1.13;0.77;;;25.80;99.90;;;;;;4992540;28;20484;-84
2022/08/16 09:46:07;;;;;;;1.40;1.00;;;25.90;99.90;;;;;;5010149;28;20038;-83
2022/08/16 09:48:36;;;;;;;0.85;0.80;;;25.90;99.90;;;;;;5012221;28;20565;-82
2022/08/16 09:51:04;;;;;;;1.60;1.05;;;26.10;99.90;;;;;;5040743;28;20499;-81
2022/08/16 09:53:31;;;;;;;1.25;0.88;;;26.20;99.90;;;;;;5007848;28;20038;-78
2022/08/16 09:55:58;;;;;;;0.95;0.65;;;26.40;99.90;;;;;;4997783;28;20157;-83
2022/08/16 09:58:26;;;;;;;1.45;0.85;;;26.40;99.90;;;;;;5017873;28;20515;-81
2022/08/16 10:00:53;;;;;;;1.75;0.77;;;26.60;99.90;;;;;;5016497;28;20569;-82
2022/08/16 10:03:20;;;;;;;1.10;0.73;;;26.70;99.90;;;;;;4997134;28;20034;-80
2022/08/16 10:05:48;;;;;;;0.77;0.60;;;26.70;99.90;;;;;;5015764;28;20026;-81
2022/08/16 10:08:16;;;;;;;1.42;0.85;;;26.80;99.90;;;;;;5016489;28;20888;-82
2022/08/16 10:13:10;;;;;;;1.40;0.80;;;26.80;99.90;;;;;;5000316;28;20107;-84
2022/08/16 10:13:32;;;;;;;1.38;0.90;;;26.80;99.90;;;;;;5018957;28;20046;-81
2022/08/16 10:15:59;;;;;;;1.15;0.75;;;26.90;99.90;;;;;;4997093;28;20472;-83
2022/08/16 10:18:28;;;;;;;1.45;0.80;;;27.00;99.90;;;;;;5016220;28;20038;-82
2022/08/16 10:20:57;;;;;;;1.33;0.82;;;27.00;99.90;;;;;;5032513;28;20046;-81
2022/08/16 10:23:24;;;;;;;0.65;0.57;;;27.00;99.90;;;;;;5012825;28;20474;-81
2022/08/16 10:25:51;;;;;;;0.98;0.70;;;27.10;99.90;;;;;;4984228;28;20132;-81
2022/08/16 10:28:18;;;;;;;0.90;0.63;;;27.00;99.90;;;;;;5032706;28;20029;-80
2022/08/16 10:30:45;;;;;;;1.33;0.90;;;27.20;99.90;;;;;;4999919;28;20045;-82
2022/08/16 10:33:12;;;;;;;1.33;0.90;;;27.30;99.90;;;;;;4980795;28;20042;-81
2022/08/16 10:35:41;;;;;;;1.27;0.85;;;27.40;99.90;;;;;;5008132;28;20041;-81
2022/08/16 10:38:07;;;;;;;1.45;0.75;;;27.50;99.90;;;;;;5000365;28;20069;-84
2022/08/16 10:40:35;;;;;;;1.50;0.82;;;27.50;99.90;;;;;;5012520;28;20135;-81
2022/08/16 10:43:02;;;;;;;0.88;0.77;;;27.60;98.90;;;;;;4995914;28;20062;-81
2022/08/16 10:45:30;;;;;;;1.10;0.75;;;27.60;99.30;;;;;;4983606;28;20085;-81
2022/08/16 10:47:58;;;;;;;1.30;0.70;;;27.80;99.30;;;;;;5015816;28;20041;-83
2022/08/16 10:50:26;;;;;;;0.95;0.70;;;27.90;99.90;;;;;;4999875;28;20550;-83
2022/08/16 10:52:53;;;;;;;0.68;0.57;;;27.90;99.90;;;;;;5031921;28;20521;-83
2022/08/16 10:55:20;;;;;;;1.23;0.80;;;28.10;99.00;;;;;;4999798;28;20117;-83
2022/08/16 10:57:48;;;;;;;1.30;0.90;;;28.10;98.00;;;;;;5012067;28;20057;-80
2022/08/16 11:00:17;;;;;;;1.08;0.82;;;28.10;98.10;;;;;;5015761;28;20096;-83
2022/08/16 11:02:45;;;;;;;2.00;0.80;;;28.20;99.30;;;;;;5027966;28;20093;-81
2022/08/16 11:05:15;;;;;;;0.70;0.60;;;28.30;98.30;;;;;;5015722;28;20480;-84
2022/08/16 11:07:46;;;;;;;2.47;0.70;;;28.30;99.90;;;;;;5027538;28;20045;-81
2022/08/16 11:10:16;;;;;;;1.05;0.60;;;28.20;97.50;;;;;;5038984;28;20076;-82
2022/08/16 11:12:43;;;;;;;1.00;0.70;;;28.30;99.10;;;;;;5054860;28;20034;-84
2022/08/16 11:15:10;;;;;;;0.50;0.50;;;28.30;98.30;;;;;;5037319;28;20521;-81
2022/08/16 11:17:40;;;;;;;0.75;0.60;;;28.40;95.70;;;;;;5036319;28;20034;-80
2022/08/16 11:20:12;;;;;;;0.88;0.68;;;28.50;97.20;;;;;;5022497;28;20392;-80
2022/08/16 11:22:41;;;;;;;0.70;0.70;;;28.50;95.50;;;;;;5041100;28;20073;-81
2022/08/16 11:25:10;;;;;;;1.00;0.65;;;28.60;98.60;;;;;;5028847;28;20426;-80
2022/08/16 11:27:37;;;;;;;0.80;0.70;;;28.60;95.40;;;;;;5028156;28;20141;-80
2022/08/16 11:30:05;;;;;;;1.17;0.88;;;28.70;96.00;;;;;;5029466;28;20120;-83
2022/08/16 11:32:31;;;;;;;1.05;0.70;;;28.70;96.00;;;;;;5051073;28;20132;-83
2022/08/16 11:35:07;;;;;;;0.90;0.70;;;28.70;94.70;;;;;;5035398;28;20049;-80
2022/08/16 11:37:34;;;;;;;0.98;0.70;;;28.60;96.60;;;;;;5037808;28;20029;-81
2022/08/16 11:40:04;;;;;;;0.52;0.47;;;28.80;95.70;;;;;;5029204;28;20414;-81
2022/08/16 11:42:31;;;;;;;0.75;0.60;;;28.90;95.40;;;;;;5037856;28;20079;-83
2022/08/16 11:44:58;;;;;;;0.60;0.60;;;28.90;96.80;;;;;;5036727;28;20048;-83
2022/08/16 11:47:25;;;;;;;0.75;0.60;;;29.00;93.80;;;;;;5031506;28;20041;-81
2022/08/16 11:49:51;;;;;;;0.57;0.50;;;29.00;94.40;;;;;;5031044;28;20034;-83
2022/08/16 11:52:18;;;;;;;0.68;0.55;;;29.00;94.30;;;;;;5032195;28;20048;-81
2022/08/16 11:54:46;;;;;;;0.70;0.50;;;28.90;95.10;;;;;;5003184;28;20053;-83
2022/08/16 11:57:13;;;;;;;0.85;0.60;;;29.00;95.60;;;;;;5002357;28;20440;-81
2022/08/16 11:59:40;;;;;;;0.73;0.60;;;29.00;95.10;;;;;;5031079;28;20038;-83
2022/08/16 12:02:08;;;;;;;0.57;0.57;;;29.10;94.90;;;;;;5049854;28;20164;-83
2022/08/16 12:04:35;;;;;;;0.85;0.70;;;29.10;95.00;;;;;;5046985;28;20144;-81
2022/08/16 12:07:06;;;;;;;1.15;0.80;;;29.20;94.40;;;;;;5008357;28;20124;-81
2022/08/16 12:09:33;;;;;;;0.60;0.60;;;29.20;94.60;;;;;;5059412;28;20041;-83
2022/08/16 12:12:00;;;;;;;0.85;0.60;;;29.10;93.70;;;;;;5056868;28;20537;-81
2022/08/16 12:14:27;;;;;;;0.85;0.60;;;29.10;94.70;;;;;;5048857;28;20453;-83
2022/08/16 12:16:54;;;;;;;1.17;0.77;;;29.10;94.80;;;;;;5030580;28;20100;-82
2022/08/16 12:19:22;;;;;;;0.80;0.60;;;29.10;93.80;;;;;;5046385;28;20038;-83
2022/08/16 12:21:49;;;;;;;0.88;0.60;;;29.10;93.30;;;;;;5030427;28;20573;-81
2022/08/16 12:24:16;;;;;;;1.42;0.73;;;29.30;94.80;;;;;;5030834;28;20038;-83
2022/08/16 12:26:43;;;;;;;0.95;0.68;;;29.30;94.20;;;;;;5010784;28;20035;-81
2022/08/16 12:29:10;;;;;;;0.98;0.68;;;29.20;93.70;;;;;;5013151;28;20042;-81
2022/08/16 12:31:36;;;;;;;1.10;0.80;;;29.30;93.50;;;;;;5011546;28;20042;-81
2022/08/16 12:34:06;;;;;;;0.95;0.65;;;29.40;93.30;;;;;;5032473;28;20495;-81
2022/08/16 12:36:34;;;;;;;0.93;0.70;;;29.40;94.60;;;;;;5019076;28;20461;-81
2022/08/16 12:39:02;;;;;;;0.82;0.60;;;29.40;93.40;;;;;;5026881;28;20050;-83
2022/08/16 12:41:31;;;;;;;0.50;0.50;;;29.30;92.30;;;;;;5028746;28;20045;-81
2022/08/16 12:43:58;;;;;;;0.63;0.60;;;29.30;93.50;;;;;;5017277;28;20045;-83
2022/08/16 12:46:25;;;;;;;0.63;0.50;;;29.30;92.80;;;;;;5014670;28;20038;-83
2022/08/16 12:48:57;;;;;;;1.10;0.68;;;29.50;93.50;;;;;;5039151;28;20037;-83
2022/08/16 12:51:31;;;;;;;0.70;0.50;;;29.60;92.80;;;;;;5034386;28;20087;-83